sensor_id;sensor_type;location;lat;lon;timestamp;P1;durP1;ratioP1;P2;durP2;ratioP2
28920;SDS011;16035;53.594;9.952;2023-12-20T00:00:50;13.67;;;2.87;;
28920;SDS011;16035;53.594;9.952;2023-12-20T00:02:51;25.10;;;4.33;;
28920;SDS011;16035;53.594;9.952;2023-12-20T00:04:51;9.60;;;1.90;;
28920;SDS011;16035;53.594;9.952;2023-12-20T00:06:51;11.30;;;2.47;;
28920;SDS011;16035;53.594;9.952;2023-12-20T00:08:52;7.60;;;1.67;;
28920;SDS011;16035;53.594;9.952;2023-12-20T00:10:53;12.20;;;2.47;;
28920;SDS011;16035;53.594;9.952;2023-12-20T00:12:54;8.70;;;1.80;;
28920;SDS011;16035;53.594;9.952;2023-12-20T00:14:54;10.83;;;1.73;;
28920;SDS011;16035;53.594;9.952;2023-12-20T00:16:54;12.73;;;1.50;;
28920;SDS011;16035;53.594;9.952;2023-12-20T00:18:54;10.47;;;2.00;;
28920;SDS011;16035;53.594;9.952;2023-12-20T00:20:55;15.77;;;1.77;;
28920;SDS011;16035;53.594;9.952;2023-12-20T00:22:56;8.07;;;1.77;;
28920;SDS011;16035;53.594;9.952;2023-12-20T00:24:57;13.30;;;2.22;;
28920;SDS011;16035;53.594;9.952;2023-12-20T00:26:58;9.87;;;1.90;;
28920;SDS011;16035;53.594;9.952;2023-12-20T00:28:58;12.97;;;1.90;;
28920;SDS011;16035;53.594;9.952;2023-12-20T00:30:58;11.00;;;1.87;;
28920;SDS011;16035;53.594;9.952;2023-12-20T00:32:58;9.40;;;1.70;;
28920;SDS011;16035;53.594;9.952;2023-12-20T00:34:59;12.67;;;1.50;;
28920;SDS011;16035;53.594;9.952;2023-12-20T00:36:59;10.13;;;1.77;;
28920;SDS011;16035;53.594;9.952;2023-12-20T00:38:59;10.30;;;1.67;;
28920;SDS011;16035;53.594;9.952;2023-12-20T00:41:00;11.43;;;1.60;;
28920;SDS011;16035;53.594;9.952;2023-12-20T00:43:00;12.60;;;1.83;;
28920;SDS011;16035;53.594;9.952;2023-12-20T00:45:01;10.10;;;2.33;;
28920;SDS011;16035;53.594;9.952;2023-12-20T00:47:02;14.32;;;1.75;;
28920;SDS011;16035;53.594;9.952;2023-12-20T00:49:02;13.97;;;2.43;;
28920;SDS011;16035;53.594;9.952;2023-12-20T00:51:03;9.20;;;1.67;;
28920;SDS011;16035;53.594;9.952;2023-12-20T00:53:03;15.90;;;1.80;;
28920;SDS011;16035;53.594;9.952;2023-12-20T00:57:07;10.93;;;1.38;;
28920;SDS011;16035;53.594;9.952;2023-12-20T00:59:07;16.60;;;2.03;;
28920;SDS011;16035;53.594;9.952;2023-12-20T01:01:07;14.07;;;1.83;;
28920;SDS011;16035;53.594;9.952;2023-12-20T01:03:08;15.10;;;2.07;;
28920;SDS011;16035;53.594;9.952;2023-12-20T01:05:08;12.40;;;1.47;;
28920;SDS011;16035;53.594;9.952;2023-12-20T01:07:09;9.63;;;1.50;;
28920;SDS011;16035;53.594;9.952;2023-12-20T01:09:09;17.50;;;1.90;;
28920;SDS011;16035;53.594;9.952;2023-12-20T01:11:10;9.03;;;1.53;;
28920;SDS011;16035;53.594;9.952;2023-12-20T01:13:10;6.67;;;1.47;;
28920;SDS011;16035;53.594;9.952;2023-12-20T01:15:10;8.80;;;1.03;;
28920;SDS011;16035;53.594;9.952;2023-12-20T01:17:11;12.70;;;1.33;;
28920;SDS011;16035;53.594;9.952;2023-12-20T01:19:12;13.97;;;1.60;;
28920;SDS011;16035;53.594;9.952;2023-12-20T01:21:13;14.68;;;1.58;;
28920;SDS011;16035;53.594;9.952;2023-12-20T01:23:13;9.77;;;1.80;;
28920;SDS011;16035;53.594;9.952;2023-12-20T01:25:14;11.07;;;2.33;;
28920;SDS011;16035;53.594;9.952;2023-12-20T01:27:14;9.13;;;1.37;;
28920;SDS011;16035;53.594;9.952;2023-12-20T01:29:15;18.07;;;2.27;;
28920;SDS011;16035;53.594;9.952;2023-12-20T01:31:15;9.68;;;1.60;;
28920;SDS011;16035;53.594;9.952;2023-12-20T01:33:16;10.97;;;1.23;;
28920;SDS011;16035;53.594;9.952;2023-12-20T01:35:16;6.77;;;1.23;;
28920;SDS011;16035;53.594;9.952;2023-12-20T01:37:16;14.03;;;1.80;;
28920;SDS011;16035;53.594;9.952;2023-12-20T01:39:17;6.77;;;1.60;;
28920;SDS011;16035;53.594;9.952;2023-12-20T01:41:17;16.13;;;1.53;;
28920;SDS011;16035;53.594;9.952;2023-12-20T01:43:18;8.93;;;1.70;;
28920;SDS011;16035;53.594;9.952;2023-12-20T01:45:18;13.30;;;1.47;;
28920;SDS011;16035;53.594;9.952;2023-12-20T01:47:19;10.00;;;1.50;;
28920;SDS011;16035;53.594;9.952;2023-12-20T01:49:19;9.63;;;1.03;;
28920;SDS011;16035;53.594;9.952;2023-12-20T01:51:20;16.27;;;3.95;;
28920;SDS011;16035;53.594;9.952;2023-12-20T01:53:21;15.43;;;1.70;;
28920;SDS011;16035;53.594;9.952;2023-12-20T01:55:24;12.57;;;1.58;;
28920;SDS011;16035;53.594;9.952;2023-12-20T01:57:25;8.30;;;1.58;;
28920;SDS011;16035;53.594;9.952;2023-12-20T01:59:26;14.27;;;2.90;;
28920;SDS011;16035;53.594;9.952;2023-12-20T02:01:26;10.10;;;1.80;;
28920;SDS011;16035;53.594;9.952;2023-12-20T02:03:28;18.40;;;2.03;;
28920;SDS011;16035;53.594;9.952;2023-12-20T02:05:32;12.57;;;1.73;;
28920;SDS011;16035;53.594;9.952;2023-12-20T02:07:34;8.55;;;1.50;;
28920;SDS011;16035;53.594;9.952;2023-12-20T02:09:35;12.50;;;2.00;;
28920;SDS011;16035;53.594;9.952;2023-12-20T02:11:35;4.37;;;1.47;;
28920;SDS011;16035;53.594;9.952;2023-12-20T02:13:36;8.13;;;1.90;;
28920;SDS011;16035;53.594;9.952;2023-12-20T02:15:36;9.47;;;1.70;;
28920;SDS011;16035;53.594;9.952;2023-12-20T02:17:37;23.70;;;2.47;;
28920;SDS011;16035;53.594;9.952;2023-12-20T02:19:39;8.85;;;1.35;;
28920;SDS011;16035;53.594;9.952;2023-12-20T02:21:40;22.20;;;1.83;;
28920;SDS011;16035;53.594;9.952;2023-12-20T02:23:40;9.43;;;1.53;;
28920;SDS011;16035;53.594;9.952;2023-12-20T02:25:40;15.53;;;1.87;;
28920;SDS011;16035;53.594;9.952;2023-12-20T02:27:40;11.13;;;1.90;;
28920;SDS011;16035;53.594;9.952;2023-12-20T02:29:41;14.30;;;1.93;;
28920;SDS011;16035;53.594;9.952;2023-12-20T02:31:42;11.73;;;2.90;;
28920;SDS011;16035;53.594;9.952;2023-12-20T02:33:42;16.23;;;2.10;;
28920;SDS011;16035;53.594;9.952;2023-12-20T02:35:42;17.33;;;1.80;;
28920;SDS011;16035;53.594;9.952;2023-12-20T02:37:43;11.27;;;1.70;;
28920;SDS011;16035;53.594;9.952;2023-12-20T02:39:43;8.30;;;1.57;;
28920;SDS011;16035;53.594;9.952;2023-12-20T02:41:43;7.63;;;3.07;;
28920;SDS011;16035;53.594;9.952;2023-12-20T02:43:43;4.07;;;1.37;;
28920;SDS011;16035;53.594;9.952;2023-12-20T02:45:44;11.10;;;1.77;;
28920;SDS011;16035;53.594;9.952;2023-12-20T02:47:44;12.37;;;2.70;;
28920;SDS011;16035;53.594;9.952;2023-12-20T02:49:44;9.90;;;1.47;;
28920;SDS011;16035;53.594;9.952;2023-12-20T02:51:45;7.07;;;1.47;;
28920;SDS011;16035;53.594;9.952;2023-12-20T02:53:46;11.70;;;1.98;;
28920;SDS011;16035;53.594;9.952;2023-12-20T02:55:46;10.27;;;1.70;;
28920;SDS011;16035;53.594;9.952;2023-12-20T02:57:47;10.20;;;1.50;;
28920;SDS011;16035;53.594;9.952;2023-12-20T02:59:47;17.13;;;1.83;;
28920;SDS011;16035;53.594;9.952;2023-12-20T03:01:47;10.23;;;2.37;;
28920;SDS011;16035;53.594;9.952;2023-12-20T03:03:48;10.17;;;1.37;;
28920;SDS011;16035;53.594;9.952;2023-12-20T03:05:48;5.73;;;1.27;;
28920;SDS011;16035;53.594;9.952;2023-12-20T03:07:48;10.83;;;1.90;;
28920;SDS011;16035;53.594;9.952;2023-12-20T03:09:48;8.90;;;1.40;;
28920;SDS011;16035;53.594;9.952;2023-12-20T03:11:49;17.27;;;2.00;;
28920;SDS011;16035;53.594;9.952;2023-12-20T03:13:49;13.67;;;1.97;;
28920;SDS011;16035;53.594;9.952;2023-12-20T03:15:49;9.03;;;1.57;;
28920;SDS011;16035;53.594;9.952;2023-12-20T03:17:50;6.87;;;1.40;;
28920;SDS011;16035;53.594;9.952;2023-12-20T03:19:50;10.63;;;1.57;;
28920;SDS011;16035;53.594;9.952;2023-12-20T03:21:50;10.30;;;1.50;;
28920;SDS011;16035;53.594;9.952;2023-12-20T03:23:53;8.65;;;1.77;;
28920;SDS011;16035;53.594;9.952;2023-12-20T03:25:53;10.47;;;2.10;;
28920;SDS011;16035;53.594;9.952;2023-12-20T03:27:53;16.20;;;1.57;;
28920;SDS011;16035;53.594;9.952;2023-12-20T03:29:54;12.93;;;1.03;;
28920;SDS011;16035;53.594;9.952;2023-12-20T03:31:54;8.17;;;1.23;;
28920;SDS011;16035;53.594;9.952;2023-12-20T03:33:54;12.77;;;2.00;;
28920;SDS011;16035;53.594;9.952;2023-12-20T03:35:54;10.17;;;1.93;;
28920;SDS011;16035;53.594;9.952;2023-12-20T03:37:55;11.07;;;1.83;;
28920;SDS011;16035;53.594;9.952;2023-12-20T03:41:57;7.47;;;1.93;;
28920;SDS011;16035;53.594;9.952;2023-12-20T03:43:57;10.20;;;1.97;;
28920;SDS011;16035;53.594;9.952;2023-12-20T03:45:57;9.83;;;1.43;;
28920;SDS011;16035;53.594;9.952;2023-12-20T03:47:58;12.27;;;1.77;;
28920;SDS011;16035;53.594;9.952;2023-12-20T03:49:59;15.70;;;3.67;;
28920;SDS011;16035;53.594;9.952;2023-12-20T03:51:59;13.00;;;1.40;;
28920;SDS011;16035;53.594;9.952;2023-12-20T03:53:59;8.73;;;1.93;;
28920;SDS011;16035;53.594;9.952;2023-12-20T03:56:00;12.23;;;2.63;;
28920;SDS011;16035;53.594;9.952;2023-12-20T03:58:00;4.87;;;1.10;;
28920;SDS011;16035;53.594;9.952;2023-12-20T04:00:00;6.27;;;1.47;;
28920;SDS011;16035;53.594;9.952;2023-12-20T04:02:00;11.03;;;2.63;;
28920;SDS011;16035;53.594;9.952;2023-12-20T04:04:02;10.18;;;1.25;;
28920;SDS011;16035;53.594;9.952;2023-12-20T04:06:02;7.00;;;1.60;;
28920;SDS011;16035;53.594;9.952;2023-12-20T04:08:03;8.57;;;1.90;;
28920;SDS011;16035;53.594;9.952;2023-12-20T04:10:04;9.40;;;1.60;;
28920;SDS011;16035;53.594;9.952;2023-12-20T04:12:05;9.40;;;1.95;;
28920;SDS011;16035;53.594;9.952;2023-12-20T04:14:06;11.25;;;2.03;;
28920;SDS011;16035;53.594;9.952;2023-12-20T04:16:07;4.93;;;0.93;;
28920;SDS011;16035;53.594;9.952;2023-12-20T04:18:07;5.93;;;1.93;;
28920;SDS011;16035;53.594;9.952;2023-12-20T04:20:07;6.20;;;1.70;;
28920;SDS011;16035;53.594;9.952;2023-12-20T04:22:08;15.43;;;2.00;;
28920;SDS011;16035;53.594;9.952;2023-12-20T04:24:08;14.03;;;2.67;;
28920;SDS011;16035;53.594;9.952;2023-12-20T04:26:09;18.97;;;2.10;;
28920;SDS011;16035;53.594;9.952;2023-12-20T04:28:10;10.40;;;1.33;;
28920;SDS011;16035;53.594;9.952;2023-12-20T04:30:11;11.57;;;1.57;;
28920;SDS011;16035;53.594;9.952;2023-12-20T04:32:11;20.00;;;3.03;;
28920;SDS011;16035;53.594;9.952;2023-12-20T04:34:12;8.97;;;1.10;;
28920;SDS011;16035;53.594;9.952;2023-12-20T04:36:12;6.77;;;1.43;;
28920;SDS011;16035;53.594;9.952;2023-12-20T04:38:12;14.77;;;1.77;;
28920;SDS011;16035;53.594;9.952;2023-12-20T04:40:12;10.37;;;2.30;;
28920;SDS011;16035;53.594;9.952;2023-12-20T04:42:13;12.57;;;1.73;;
28920;SDS011;16035;53.594;9.952;2023-12-20T04:44:13;8.43;;;1.13;;
28920;SDS011;16035;53.594;9.952;2023-12-20T04:46:14;12.80;;;1.60;;
28920;SDS011;16035;53.594;9.952;2023-12-20T04:48:14;12.53;;;2.07;;
28920;SDS011;16035;53.594;9.952;2023-12-20T04:50:14;8.93;;;1.57;;
28920;SDS011;16035;53.594;9.952;2023-12-20T04:52:15;8.20;;;1.77;;
28920;SDS011;16035;53.594;9.952;2023-12-20T04:54:16;11.90;;;1.93;;
28920;SDS011;16035;53.594;9.952;2023-12-20T04:56:16;9.43;;;1.43;;
28920;SDS011;16035;53.594;9.952;2023-12-20T04:58:16;13.17;;;1.37;;
28920;SDS011;16035;53.594;9.952;2023-12-20T05:00:17;9.53;;;1.70;;
28920;SDS011;16035;53.594;9.952;2023-12-20T05:02:17;7.33;;;1.87;;
28920;SDS011;16035;53.594;9.952;2023-12-20T05:04:18;8.47;;;2.23;;
28920;SDS011;16035;53.594;9.952;2023-12-20T05:06:18;8.97;;;1.97;;
28920;SDS011;16035;53.594;9.952;2023-12-20T05:08:18;10.83;;;1.30;;
28920;SDS011;16035;53.594;9.952;2023-12-20T05:10:19;10.43;;;1.75;;
28920;SDS011;16035;53.594;9.952;2023-12-20T05:12:20;11.63;;;2.03;;
28920;SDS011;16035;53.594;9.952;2023-12-20T05:14:20;10.30;;;2.20;;
28920;SDS011;16035;53.594;9.952;2023-12-20T05:16:20;19.47;;;2.17;;
28920;SDS011;16035;53.594;9.952;2023-12-20T05:18:21;11.67;;;2.20;;
28920;SDS011;16035;53.594;9.952;2023-12-20T05:20:22;8.68;;;1.23;;
28920;SDS011;16035;53.594;9.952;2023-12-20T05:22:23;10.30;;;1.83;;
28920;SDS011;16035;53.594;9.952;2023-12-20T05:24:24;4.37;;;1.50;;
28920;SDS011;16035;53.594;9.952;2023-12-20T05:26:24;11.03;;;2.03;;
28920;SDS011;16035;53.594;9.952;2023-12-20T05:28:24;13.40;;;1.53;;
28920;SDS011;16035;53.594;9.952;2023-12-20T05:30:25;13.13;;;1.60;;
28920;SDS011;16035;53.594;9.952;2023-12-20T05:32:26;14.30;;;2.17;;
28920;SDS011;16035;53.594;9.952;2023-12-20T05:34:27;14.17;;;2.03;;
28920;SDS011;16035;53.594;9.952;2023-12-20T05:36:27;13.43;;;1.77;;
28920;SDS011;16035;53.594;9.952;2023-12-20T05:38:28;13.13;;;2.33;;
28920;SDS011;16035;53.594;9.952;2023-12-20T05:40:28;11.27;;;2.07;;
28920;SDS011;16035;53.594;9.952;2023-12-20T05:42:29;16.20;;;2.40;;
28920;SDS011;16035;53.594;9.952;2023-12-20T05:44:29;12.70;;;2.10;;
28920;SDS011;16035;53.594;9.952;2023-12-20T05:46:29;10.77;;;1.70;;
28920;SDS011;16035;53.594;9.952;2023-12-20T05:48:30;14.07;;;2.30;;
28920;SDS011;16035;53.594;9.952;2023-12-20T05:50:30;7.60;;;1.70;;
28920;SDS011;16035;53.594;9.952;2023-12-20T05:52:30;10.37;;;1.80;;
28920;SDS011;16035;53.594;9.952;2023-12-20T05:54:31;9.33;;;1.47;;
28920;SDS011;16035;53.594;9.952;2023-12-20T05:56:31;14.30;;;2.13;;
28920;SDS011;16035;53.594;9.952;2023-12-20T05:58:32;6.70;;;1.90;;
28920;SDS011;16035;53.594;9.952;2023-12-20T06:02:33;11.95;;;1.83;;
28920;SDS011;16035;53.594;9.952;2023-12-20T06:04:34;12.17;;;1.90;;
28920;SDS011;16035;53.594;9.952;2023-12-20T06:06:34;15.83;;;2.30;;
28920;SDS011;16035;53.594;9.952;2023-12-20T06:08:35;11.27;;;2.53;;
28920;SDS011;16035;53.594;9.952;2023-12-20T06:10:36;12.93;;;1.80;;
28920;SDS011;16035;53.594;9.952;2023-12-20T06:12:36;9.37;;;1.87;;
28920;SDS011;16035;53.594;9.952;2023-12-20T06:14:37;16.70;;;2.20;;
28920;SDS011;16035;53.594;9.952;2023-12-20T06:16:37;16.13;;;2.03;;
28920;SDS011;16035;53.594;9.952;2023-12-20T06:18:38;9.00;;;1.10;;
28920;SDS011;16035;53.594;9.952;2023-12-20T06:20:38;14.83;;;1.97;;
28920;SDS011;16035;53.594;9.952;2023-12-20T06:22:38;11.87;;;2.00;;
28920;SDS011;16035;53.594;9.952;2023-12-20T06:24:39;21.53;;;2.50;;
28920;SDS011;16035;53.594;9.952;2023-12-20T06:26:39;14.90;;;2.10;;
28920;SDS011;16035;53.594;9.952;2023-12-20T06:28:40;9.47;;;2.33;;
28920;SDS011;16035;53.594;9.952;2023-12-20T06:30:40;13.53;;;1.80;;
28920;SDS011;16035;53.594;9.952;2023-12-20T06:32:40;23.60;;;4.53;;
28920;SDS011;16035;53.594;9.952;2023-12-20T06:34:42;8.10;;;1.88;;
28920;SDS011;16035;53.594;9.952;2023-12-20T06:36:42;15.33;;;1.80;;
28920;SDS011;16035;53.594;9.952;2023-12-20T06:38:43;14.17;;;2.03;;
28920;SDS011;16035;53.594;9.952;2023-12-20T06:40:43;10.57;;;2.07;;
28920;SDS011;16035;53.594;9.952;2023-12-20T06:42:43;13.67;;;2.53;;
28920;SDS011;16035;53.594;9.952;2023-12-20T06:44:44;11.90;;;2.27;;
28920;SDS011;16035;53.594;9.952;2023-12-20T06:46:44;7.93;;;1.90;;
28920;SDS011;16035;53.594;9.952;2023-12-20T06:48:45;9.30;;;2.10;;
28920;SDS011;16035;53.594;9.952;2023-12-20T06:50:45;13.17;;;2.50;;
28920;SDS011;16035;53.594;9.952;2023-12-20T06:52:45;9.33;;;1.87;;
28920;SDS011;16035;53.594;9.952;2023-12-20T06:54:46;23.17;;;3.17;;
28920;SDS011;16035;53.594;9.952;2023-12-20T06:56:46;17.77;;;2.20;;
28920;SDS011;16035;53.594;9.952;2023-12-20T06:58:46;13.13;;;2.03;;
28920;SDS011;16035;53.594;9.952;2023-12-20T07:00:47;17.20;;;3.23;;
28920;SDS011;16035;53.594;9.952;2023-12-20T07:02:48;9.23;;;2.03;;
28920;SDS011;16035;53.594;9.952;2023-12-20T07:04:48;9.17;;;2.00;;
28920;SDS011;16035;53.594;9.952;2023-12-20T07:06:48;11.73;;;2.73;;
28920;SDS011;16035;53.594;9.952;2023-12-20T07:08:52;16.17;;;2.33;;
28920;SDS011;16035;53.594;9.952;2023-12-20T07:10:52;12.07;;;1.90;;
28920;SDS011;16035;53.594;9.952;2023-12-20T07:12:52;11.47;;;2.30;;
28920;SDS011;16035;53.594;9.952;2023-12-20T07:14:55;11.10;;;3.10;;
28920;SDS011;16035;53.594;9.952;2023-12-20T07:16:56;11.63;;;2.00;;
28920;SDS011;16035;53.594;9.952;2023-12-20T07:18:57;16.40;;;2.05;;
28920;SDS011;16035;53.594;9.952;2023-12-20T07:20:57;14.13;;;2.10;;
28920;SDS011;16035;53.594;9.952;2023-12-20T07:22:57;13.53;;;2.10;;
28920;SDS011;16035;53.594;9.952;2023-12-20T07:24:58;17.80;;;2.47;;
28920;SDS011;16035;53.594;9.952;2023-12-20T07:26:59;13.40;;;2.45;;
28920;SDS011;16035;53.594;9.952;2023-12-20T07:29:00;17.27;;;2.45;;
28920;SDS011;16035;53.594;9.952;2023-12-20T07:31:00;15.10;;;2.70;;
28920;SDS011;16035;53.594;9.952;2023-12-20T07:33:01;9.97;;;1.70;;
28920;SDS011;16035;53.594;9.952;2023-12-20T07:35:02;18.73;;;2.35;;
28920;SDS011;16035;53.594;9.952;2023-12-20T07:37:03;21.13;;;3.47;;
28920;SDS011;16035;53.594;9.952;2023-12-20T07:39:03;14.57;;;3.55;;
28920;SDS011;16035;53.594;9.952;2023-12-20T07:41:04;9.07;;;2.30;;
28920;SDS011;16035;53.594;9.952;2023-12-20T07:43:05;15.70;;;3.28;;
28920;SDS011;16035;53.594;9.952;2023-12-20T07:45:05;20.27;;;3.07;;
28920;SDS011;16035;53.594;9.952;2023-12-20T07:47:06;14.77;;;2.47;;
28920;SDS011;16035;53.594;9.952;2023-12-20T07:49:06;17.57;;;2.57;;
28920;SDS011;16035;53.594;9.952;2023-12-20T07:51:08;16.80;;;2.55;;
28920;SDS011;16035;53.594;9.952;2023-12-20T07:53:09;11.65;;;2.63;;
28920;SDS011;16035;53.594;9.952;2023-12-20T07:55:10;14.20;;;2.40;;
28920;SDS011;16035;53.594;9.952;2023-12-20T07:57:10;11.70;;;2.17;;
28920;SDS011;16035;53.594;9.952;2023-12-20T07:59:11;10.90;;;1.83;;
28920;SDS011;16035;53.594;9.952;2023-12-20T08:01:11;20.23;;;3.90;;
28920;SDS011;16035;53.594;9.952;2023-12-20T08:03:12;18.73;;;2.70;;
28920;SDS011;16035;53.594;9.952;2023-12-20T08:05:12;12.70;;;2.20;;
28920;SDS011;16035;53.594;9.952;2023-12-20T08:07:13;14.00;;;2.60;;
28920;SDS011;16035;53.594;9.952;2023-12-20T08:09:14;15.30;;;1.83;;
28920;SDS011;16035;53.594;9.952;2023-12-20T08:11:14;14.90;;;2.50;;
28920;SDS011;16035;53.594;9.952;2023-12-20T08:13:15;17.93;;;2.73;;
28920;SDS011;16035;53.594;9.952;2023-12-20T08:15:15;12.50;;;3.10;;
28920;SDS011;16035;53.594;9.952;2023-12-20T08:17:16;20.20;;;4.77;;
28920;SDS011;16035;53.594;9.952;2023-12-20T08:19:18;14.23;;;2.58;;
28920;SDS011;16035;53.594;9.952;2023-12-20T08:21:18;14.33;;;2.67;;
28920;SDS011;16035;53.594;9.952;2023-12-20T08:23:20;15.43;;;2.30;;
28920;SDS011;16035;53.594;9.952;2023-12-20T08:25:21;16.60;;;2.80;;
28920;SDS011;16035;53.594;9.952;2023-12-20T08:27:21;16.97;;;2.57;;
28920;SDS011;16035;53.594;9.952;2023-12-20T08:29:21;21.13;;;2.80;;
28920;SDS011;16035;53.594;9.952;2023-12-20T08:31:22;18.37;;;2.70;;
28920;SDS011;16035;53.594;9.952;2023-12-20T08:33:22;17.03;;;2.97;;
28920;SDS011;16035;53.594;9.952;2023-12-20T08:35:22;18.93;;;2.83;;
28920;SDS011;16035;53.594;9.952;2023-12-20T08:39:24;17.97;;;2.77;;
28920;SDS011;16035;53.594;9.952;2023-12-20T08:41:24;17.73;;;3.83;;
28920;SDS011;16035;53.594;9.952;2023-12-20T08:43:24;20.63;;;2.53;;
28920;SDS011;16035;53.594;9.952;2023-12-20T08:45:25;17.87;;;2.53;;
28920;SDS011;16035;53.594;9.952;2023-12-20T08:47:25;16.80;;;3.00;;
28920;SDS011;16035;53.594;9.952;2023-12-20T08:49:26;10.53;;;1.80;;
28920;SDS011;16035;53.594;9.952;2023-12-20T08:51:28;18.98;;;2.80;;
28920;SDS011;16035;53.594;9.952;2023-12-20T08:53:29;10.48;;;1.90;;
28920;SDS011;16035;53.594;9.952;2023-12-20T08:55:29;17.70;;;2.77;;
28920;SDS011;16035;53.594;9.952;2023-12-20T08:57:30;17.33;;;2.80;;
28920;SDS011;16035;53.594;9.952;2023-12-20T08:59:32;11.27;;;2.05;;
28920;SDS011;16035;53.594;9.952;2023-12-20T09:01:32;19.87;;;3.50;;
28920;SDS011;16035;53.594;9.952;2023-12-20T09:03:32;14.07;;;2.47;;
28920;SDS011;16035;53.594;9.952;2023-12-20T09:05:33;8.60;;;2.07;;
28920;SDS011;16035;53.594;9.952;2023-12-20T09:07:33;13.17;;;1.63;;
28920;SDS011;16035;53.594;9.952;2023-12-20T09:09:33;11.93;;;2.40;;
28920;SDS011;16035;53.594;9.952;2023-12-20T09:11:34;7.40;;;1.87;;
28920;SDS011;16035;53.594;9.952;2023-12-20T09:13:34;9.13;;;1.67;;
28920;SDS011;16035;53.594;9.952;2023-12-20T09:15:34;9.03;;;1.90;;
28920;SDS011;16035;53.594;9.952;2023-12-20T09:17:35;8.60;;;1.57;;
28920;SDS011;16035;53.594;9.952;2023-12-20T09:19:35;16.17;;;2.13;;
28920;SDS011;16035;53.594;9.952;2023-12-20T09:21:35;6.93;;;1.43;;
28920;SDS011;16035;53.594;9.952;2023-12-20T09:23:36;8.00;;;2.53;;
28920;SDS011;16035;53.594;9.952;2023-12-20T09:25:36;6.03;;;1.40;;
28920;SDS011;16035;53.594;9.952;2023-12-20T09:27:37;9.43;;;1.30;;
28920;SDS011;16035;53.594;9.952;2023-12-20T09:29:37;2.43;;;0.63;;
28920;SDS011;16035;53.594;9.952;2023-12-20T09:31:38;6.50;;;1.00;;
28920;SDS011;16035;53.594;9.952;2023-12-20T09:33:38;5.00;;;0.73;;
28920;SDS011;16035;53.594;9.952;2023-12-20T09:35:38;4.70;;;0.97;;
28920;SDS011;16035;53.594;9.952;2023-12-20T09:37:38;2.10;;;0.60;;
28920;SDS011;16035;53.594;9.952;2023-12-20T09:39:41;1.67;;;0.50;;
28920;SDS011;16035;53.594;9.952;2023-12-20T09:41:45;1.90;;;0.60;;
28920;SDS011;16035;53.594;9.952;2023-12-20T09:43:51;1.55;;;0.43;;
28920;SDS011;16035;53.594;9.952;2023-12-20T09:45:54;4.78;;;0.70;;
28920;SDS011;16035;53.594;9.952;2023-12-20T09:48:00;0.93;;;0.28;;
28920;SDS011;16035;53.594;9.952;2023-12-20T09:50:02;1.45;;;0.45;;
28920;SDS011;16035;53.594;9.952;2023-12-20T09:52:03;5.13;;;0.87;;
28920;SDS011;16035;53.594;9.952;2023-12-20T09:54:07;2.40;;;0.63;;
28920;SDS011;16035;53.594;9.952;2023-12-20T09:56:08;3.70;;;0.40;;
28920;SDS011;16035;53.594;9.952;2023-12-20T09:58:08;1.13;;;0.40;;
28920;SDS011;16035;53.594;9.952;2023-12-20T10:00:09;4.33;;;0.50;;
28920;SDS011;16035;53.594;9.952;2023-12-20T10:02:11;0.38;;;0.20;;
28920;SDS011;16035;53.594;9.952;2023-12-20T10:04:16;2.30;;;0.40;;
28920;SDS011;16035;53.594;9.952;2023-12-20T10:06:17;2.03;;;0.32;;
28920;SDS011;16035;53.594;9.952;2023-12-20T10:08:17;4.87;;;0.47;;
28920;SDS011;16035;53.594;9.952;2023-12-20T10:10:21;3.92;;;0.60;;
28920;SDS011;16035;53.594;9.952;2023-12-20T10:12:22;3.50;;;0.60;;
28920;SDS011;16035;53.594;9.952;2023-12-20T10:14:22;4.70;;;0.40;;
28920;SDS011;16035;53.594;9.952;2023-12-20T10:16:24;2.33;;;0.52;;
28920;SDS011;16035;53.594;9.952;2023-12-20T10:18:25;3.08;;;0.57;;
28920;SDS011;16035;53.594;9.952;2023-12-20T10:20:25;1.67;;;0.40;;
28920;SDS011;16035;53.594;9.952;2023-12-20T10:22:26;1.77;;;0.43;;
28920;SDS011;16035;53.594;9.952;2023-12-20T10:24:30;1.73;;;0.40;;
28920;SDS011;16035;53.594;9.952;2023-12-20T10:26:30;5.10;;;0.60;;
28920;SDS011;16035;53.594;9.952;2023-12-20T10:28:34;1.97;;;0.43;;
28920;SDS011;16035;53.594;9.952;2023-12-20T10:30:35;5.03;;;0.50;;
28920;SDS011;16035;53.594;9.952;2023-12-20T10:32:35;3.87;;;0.40;;
28920;SDS011;16035;53.594;9.952;2023-12-20T10:34:36;3.40;;;0.40;;
28920;SDS011;16035;53.594;9.952;2023-12-20T10:36:36;0.87;;;0.50;;
28920;SDS011;16035;53.594;9.952;2023-12-20T10:38:37;3.07;;;0.50;;
28920;SDS011;16035;53.594;9.952;2023-12-20T10:40:40;3.00;;;0.50;;
28920;SDS011;16035;53.594;9.952;2023-12-20T10:42:41;3.53;;;0.70;;
28920;SDS011;16035;53.594;9.952;2023-12-20T10:44:42;2.40;;;0.63;;
28920;SDS011;16035;53.594;9.952;2023-12-20T10:46:43;2.58;;;0.68;;
28920;SDS011;16035;53.594;9.952;2023-12-20T10:48:49;3.40;;;0.63;;
28920;SDS011;16035;53.594;9.952;2023-12-20T10:50:54;5.85;;;0.50;;
28920;SDS011;16035;53.594;9.952;2023-12-20T10:52:56;8.07;;;0.65;;
28920;SDS011;16035;53.594;9.952;2023-12-20T10:54:57;1.10;;;0.50;;
28920;SDS011;16035;53.594;9.952;2023-12-20T10:56:58;1.37;;;0.50;;
28920;SDS011;16035;53.594;9.952;2023-12-20T10:58:58;1.65;;;0.50;;
28920;SDS011;16035;53.594;9.952;2023-12-20T11:01:03;8.82;;;1.15;;
28920;SDS011;16035;53.594;9.952;2023-12-20T11:03:05;8.02;;;1.05;;
28920;SDS011;16035;53.594;9.952;2023-12-20T11:07:37;3.38;;;0.82;;
28920;SDS011;16035;53.594;9.952;2023-12-20T11:09:43;7.00;;;0.93;;
28920;SDS011;16035;53.594;9.952;2023-12-20T11:11:59;7.53;;;1.10;;
28920;SDS011;16035;53.594;9.952;2023-12-20T11:14:39;6.07;;;0.82;;
28920;SDS011;16035;53.594;9.952;2023-12-20T11:16:41;5.78;;;1.15;;
28920;SDS011;16035;53.594;9.952;2023-12-20T11:18:42;6.40;;;1.20;;
28920;SDS011;16035;53.594;9.952;2023-12-20T11:20:45;10.48;;;1.55;;
28920;SDS011;16035;53.594;9.952;2023-12-20T11:22:52;9.17;;;1.93;;
28920;SDS011;16035;53.594;9.952;2023-12-20T11:24:54;5.93;;;1.20;;
28920;SDS011;16035;53.594;9.952;2023-12-20T11:26:59;5.00;;;1.40;;
28920;SDS011;16035;53.594;9.952;2023-12-20T11:31:40;2.90;;;0.50;;
28920;SDS011;16035;53.594;9.952;2023-12-20T11:33:41;6.35;;;0.93;;
28920;SDS011;16035;53.594;9.952;2023-12-20T11:35:42;6.10;;;1.00;;
28920;SDS011;16035;53.594;9.952;2023-12-20T11:37:42;4.63;;;0.68;;
28920;SDS011;16035;53.594;9.952;2023-12-20T11:39:43;4.00;;;0.67;;
28920;SDS011;16035;53.594;9.952;2023-12-20T11:41:44;9.47;;;1.07;;
28920;SDS011;16035;53.594;9.952;2023-12-20T11:43:44;7.18;;;1.00;;
28920;SDS011;16035;53.594;9.952;2023-12-20T11:45:51;12.80;;;0.83;;
28920;SDS011;16035;53.594;9.952;2023-12-20T11:47:51;7.70;;;1.30;;
28920;SDS011;16035;53.594;9.952;2023-12-20T11:49:54;8.20;;;1.30;;
28920;SDS011;16035;53.594;9.952;2023-12-20T11:51:56;11.65;;;1.48;;
28920;SDS011;16035;53.594;9.952;2023-12-20T11:53:56;5.17;;;1.30;;
28920;SDS011;16035;53.594;9.952;2023-12-20T11:55:57;6.60;;;1.30;;
28920;SDS011;16035;53.594;9.952;2023-12-20T11:57:57;13.83;;;1.40;;
28920;SDS011;16035;53.594;9.952;2023-12-20T11:59:57;6.13;;;1.13;;
28920;SDS011;16035;53.594;9.952;2023-12-20T12:01:58;6.30;;;1.47;;
28920;SDS011;16035;53.594;9.952;2023-12-20T12:04:06;7.32;;;1.17;;
28920;SDS011;16035;53.594;9.952;2023-12-20T12:06:06;7.28;;;1.30;;
28920;SDS011;16035;53.594;9.952;2023-12-20T12:08:07;10.00;;;1.30;;
28920;SDS011;16035;53.594;9.952;2023-12-20T12:10:08;9.63;;;1.53;;
28920;SDS011;16035;53.594;9.952;2023-12-20T12:12:08;6.80;;;1.23;;
28920;SDS011;16035;53.594;9.952;2023-12-20T12:14:09;14.68;;;1.98;;
28920;SDS011;16035;53.594;9.952;2023-12-20T12:16:10;6.83;;;1.50;;